Time;durP1;ratioP1;P1;durP2;ratioP2;P2;SDS_P1;SDS_P2;PMS_P1;PMS_P2;Temp;Humidity;BMP_temperature;BMP_pressure;BME280_temperature;BME280_humidity;BME280_pressure;Samples;Min_cycle;Max_cycle;Signal;HPM_P1;HPM_P2
2022/12/12 00:01:18;;;;;;;30.80;14.73;;;;;;;3.10;81.34;98497.19;5032271;28;20033;-61
2022/12/12 00:03:43;;;;;;;25.95;13.05;;;;;;;3.13;81.08;98499.63;5033636;28;20349;-62
2022/12/12 00:06:09;;;;;;;26.27;14.43;;;;;;;3.14;80.63;98488.09;5034095;28;20041;-62
2022/12/12 00:08:34;;;;;;;34.05;16.70;;;;;;;3.12;81.03;98504.06;5033225;28;20466;-62
2022/12/12 00:11:00;;;;;;;33.50;14.75;;;;;;;3.08;81.33;98493.81;5033275;28;20046;-62
2022/12/12 00:13:25;;;;;;;31.63;16.05;;;;;;;3.16;81.58;98502.06;5033996;28;20087;-62
2022/12/12 00:15:51;;;;;;;32.00;16.40;;;;;;;3.14;81.95;98509.25;5033850;28;20033;-61
2022/12/12 00:18:16;;;;;;;28.98;14.90;;;;;;;3.20;81.58;98502.66;5033191;28;20083;-62
2022/12/12 00:20:41;;;;;;;28.85;14.93;;;;;;;3.18;81.28;98484.28;5033994;28;20430;-61
2022/12/12 00:23:07;;;;;;;27.70;15.38;;;;;;;3.26;81.54;98487.22;5033317;28;20106;-60
2022/12/12 00:25:32;;;;;;;30.13;14.35;;;;;;;3.37;81.20;98489.09;5033405;28;20025;-60
2022/12/12 00:27:59;;;;;;;30.27;15.35;;;;;;;3.28;81.67;98492.41;5032628;28;20033;-60
2022/12/12 00:30:25;;;;;;;31.67;14.93;;;;;;;3.34;81.80;98499.03;5033484;28;20418;-61
2022/12/12 00:32:50;;;;;;;30.77;14.70;;;;;;;3.43;81.65;98503.69;5033288;28;20108;-62
2022/12/12 00:35:16;;;;;;;28.13;13.98;;;;;;;3.47;81.45;98499.84;5032143;28;20456;-60
2022/12/12 00:37:42;;;;;;;32.17;14.40;;;;;;;3.43;81.43;98501.03;5033565;28;20098;-61
2022/12/12 00:40:09;;;;;;;31.25;14.65;;;;;;;3.50;81.56;98493.50;5033022;28;20040;-62
2022/12/12 00:42:34;;;;;;;28.45;14.32;;;;;;;3.42;81.38;98488.75;5032543;28;20197;-61
2022/12/12 00:45:00;;;;;;;24.75;12.90;;;;;;;3.53;81.28;98493.28;5032666;28;20453;-61
2022/12/12 00:47:25;;;;;;;30.63;14.32;;;;;;;3.53;81.54;98491.47;5033280;28;20368;-61
2022/12/12 00:49:51;;;;;;;27.88;12.93;;;;;;;3.51;80.85;98527.78;5033031;28;20132;-61
2022/12/12 00:52:16;;;;;;;29.30;14.95;;;;;;;3.51;81.21;98490.72;5032641;28;20040;-61
2022/12/12 00:54:42;;;;;;;32.35;13.00;;;;;;;3.62;80.81;98478.50;5033250;28;20029;-62
2022/12/12 00:57:07;;;;;;;30.23;13.73;;;;;;;3.50;80.67;98499.63;5032155;28;20121;-62
2022/12/12 00:59:32;;;;;;;24.90;11.57;;;;;;;3.64;80.02;98495.97;5032530;28;20159;-62
2022/12/12 01:01:58;;;;;;;27.55;12.95;;;;;;;3.56;80.41;98508.94;5032566;28;20060;-60
2022/12/12 01:04:23;;;;;;;22.08;12.88;;;;;;;3.47;80.92;98499.00;5032968;28;20032;-61
2022/12/12 01:06:49;;;;;;;26.13;13.40;;;;;;;3.45;81.26;98497.31;5065309;28;20116;-62
2022/12/12 01:09:14;;;;;;;24.27;11.73;;;;;;;3.43;81.36;98503.69;5032616;28;20043;-62
2022/12/12 01:11:40;;;;;;;23.85;11.82;;;;;;;3.50;81.58;98504.91;5031240;28;20148;-60
2022/12/12 01:14:05;;;;;;;25.40;13.45;;;;;;;3.52;80.72;98500.34;5032586;28;20042;-60
2022/12/12 01:16:30;;;;;;;21.25;11.40;;;;;;;3.42;81.14;98502.81;5033051;28;20433;-60
2022/12/12 01:18:56;;;;;;;21.42;11.30;;;;;;;3.48;81.08;98505.97;5032850;28;20029;-61
2022/12/12 01:21:22;;;;;;;24.42;11.70;;;;;;;3.47;80.72;98514.88;5032242;28;20460;-57
2022/12/12 01:23:47;;;;;;;24.73;11.77;;;;;;;3.44;81.21;98523.88;5031801;28;20360;-58
2022/12/12 01:26:16;;;;;;;24.92;12.10;;;;;;;3.44;81.20;98494.78;5031276;28;20034;-60
2022/12/12 01:28:42;;;;;;;22.92;11.68;;;;;;;3.44;81.22;98494.78;5032209;28;20040;-58
2022/12/12 01:31:09;;;;;;;22.55;11.35;;;;;;;3.51;80.72;98495.19;5031639;28;20025;-60
2022/12/12 01:33:35;;;;;;;25.17;12.02;;;;;;;3.43;81.11;98501.88;5031418;28;20496;-58
2022/12/12 01:36:00;;;;;;;21.17;11.25;;;;;;;3.31;80.89;98468.38;5032416;28;20045;-60
2022/12/12 01:38:26;;;;;;;20.33;10.23;;;;;;;3.48;80.96;98493.59;5031262;28;20030;-58
2022/12/12 01:40:52;;;;;;;20.23;10.57;;;;;;;3.52;80.85;98502.16;5031563;28;20464;-58
2022/12/12 01:43:20;;;;;;;25.60;11.85;;;;;;;3.49;81.23;98487.34;5031605;28;20101;-58
2022/12/12 01:45:58;;;;;;;24.13;11.07;;;;;;;3.53;81.12;98494.09;5030959;28;20037;-60
2022/12/12 01:48:41;;;;;;;19.40;10.50;;;;;;;3.52;81.23;98503.00;5032077;28;20053;-57
2022/12/12 01:51:11;;;;;;;20.90;11.13;;;;;;;3.58;80.24;98494.59;5031677;28;20041;-57
2022/12/12 01:53:37;;;;;;;22.30;11.07;;;;;;;3.32;80.42;98458.63;5032008;28;20363;-58
2022/12/12 01:56:08;;;;;;;16.95;9.05;;;;;;;3.62;80.27;98492.59;5032458;28;20037;-57
2022/12/12 01:58:33;;;;;;;23.02;10.93;;;;;;;3.47;81.21;98488.41;5035772;28;20036;-57
2022/12/12 02:01:00;;;;;;;24.15;11.52;;;;;;;3.49;80.94;98490.00;5036154;28;20037;-60
2022/12/12 02:03:26;;;;;;;18.83;9.95;;;;;;;3.46;81.49;98495.50;5036205;28;20041;-58
2022/12/12 02:05:59;;;;;;;20.27;10.57;;;;;;;3.49;81.47;98497.94;5035766;28;20090;-59
2022/12/12 02:08:25;;;;;;;20.65;10.50;;;;;;;3.53;81.45;98504.69;5036386;28;20040;-57
2022/12/12 02:10:50;;;;;;;19.25;9.95;;;;;;;3.29;81.71;98449.94;5035272;28;20036;-58
2022/12/12 02:13:22;;;;;;;18.55;10.32;;;;;;;3.48;81.59;98490.94;5035543;28;20367;-55
2022/12/12 02:15:59;;;;;;;20.65;9.90;;;;;;;3.54;81.11;98484.38;5036252;28;20120;-56
2022/12/12 02:18:34;;;;;;;20.75;9.88;;;;;;;3.55;81.53;98492.19;5035370;28;20045;-60
2022/12/12 02:21:06;;;;;;;19.60;9.75;;;;;;;3.62;81.11;98478.50;5035943;28;20033;-60
2022/12/12 02:23:58;;;;;;;16.83;9.90;;;;;;;3.68;80.88;98502.72;5036368;28;20044;-60
2022/12/12 02:26:45;;;;;;;20.20;9.43;;;;;;;3.62;81.56;98492.59;5035726;28;20040;-57
2022/12/12 02:29:28;;;;;;;19.60;9.30;;;;;;;3.67;80.93;98497.56;5035383;28;20409;-60
2022/12/12 02:32:24;;;;;;;15.15;8.65;;;;;;;3.69;81.05;98498.28;5035622;28;20040;-59
2022/12/12 02:35:10;;;;;;;16.52;9.05;;;;;;;3.66;81.28;98517.03;5035746;28;20324;-56
2022/12/12 02:38:02;;;;;;;14.98;8.35;;;;;;;3.67;81.16;98494.91;5034118;28;20103;-57
2022/12/12 02:40:37;;;;;;;13.63;8.48;;;;;;;3.56;81.10;98493.88;5030502;28;20080;-56
2022/12/12 02:43:12;;;;;;;;;;;;;;;3.84;80.32;98499.78;5036281;28;20040;-57
2022/12/12 02:45:44;;;;;;;14.80;8.35;;;;;;;3.67;80.26;98485.16;5034980;28;19913;-57
2022/12/12 02:48:22;;;;;;;14.10;7.90;;;;;;;3.68;80.82;98504.53;5035190;28;20124;-57
2022/12/12 02:50:51;;;;;;;14.70;8.80;;;;;;;3.58;81.07;98507.84;5035634;28;20041;-59
2022/12/12 02:53:22;;;;;;;19.67;8.70;;;;;;;3.59;81.34;98491.00;5035758;28;20029;-59
2022/12/12 02:55:48;;;;;;;14.18;7.85;;;;;;;3.55;81.13;98492.19;5034865;28;20334;-57
2022/12/12 02:58:14;;;;;;;11.43;7.03;;;;;;;3.62;81.05;98502.31;5034618;28;20040;-62
2022/12/12 03:01:09;;;;;;;14.43;7.75;;;;;;;3.64;80.92;98495.97;5035487;28;20375;-62
2022/12/12 03:09:55;;;;;;;13.40;7.50;;;;;;;3.50;81.17;98462.56;5015152;28;20030;-61
2022/12/12 03:12:37;;;;;;;15.10;7.55;;;;;;;3.65;81.60;98510.06;5015679;28;20036;-61
2022/12/12 03:15:20;;;;;;;12.88;7.88;;;;;;;3.51;81.55;98469.56;5014849;28;20080;-61
2022/12/12 03:18:20;;;;;;;12.73;7.30;;;;;;;3.57;81.84;98482.31;5030091;28;20034;-61
2022/12/12 03:21:01;;;;;;;16.58;7.40;;;;;;;3.74;81.03;98514.66;5035154;28;20037;-58
2022/12/12 03:23:36;;;;;;;12.88;6.85;;;;;;;3.68;81.16;98523.06;5034341;28;20518;-59
2022/12/12 03:26:07;;;;;;;18.85;7.35;;;;;;;3.65;81.96;98510.06;5034680;28;20347;-60
2022/12/12 03:28:45;;;;;;;12.45;7.03;;;;;;;3.68;81.76;98520.41;5034648;28;20065;-59
2022/12/12 03:31:13;;;;;;;12.93;7.50;;;;;;;3.68;81.60;98512.47;5034840;28;20033;-56
2022/12/12 03:33:47;;;;;;;13.07;7.10;;;;;;;3.72;81.41;98516.59;5033993;28;20041;-55
2022/12/12 03:36:48;;;;;;;14.70;7.30;;;;;;;3.77;81.31;98503.00;5034548;28;20068;-59
2022/12/12 03:39:22;;;;;;;13.15;6.95;;;;;;;3.69;81.17;98504.41;5020768;28;20104;-58
2022/12/12 03:41:57;;;;;;;15.02;6.68;;;;;;;3.70;81.42;98508.75;5034140;28;20033;-58
2022/12/12 03:44:31;;;;;;;16.33;7.63;;;;;;;3.76;81.63;98512.75;5033360;28;20369;-56
2022/12/12 03:47:04;;;;;;;11.70;6.93;;;;;;;3.84;81.39;98520.13;5033390;28;20090;-58
2022/12/12 03:49:42;;;;;;;6.65;4.03;;;;;;;4.04;80.64;98512.50;5034169;28;20192;-59
2022/12/12 03:52:14;;;;;;;13.32;7.03;;;;;;;3.82;80.57;98509.63;5033941;28;20440;-56
2022/12/12 03:54:47;;;;;;;11.43;6.28;;;;;;;3.80;81.12;98498.31;5033947;28;20034;-57
2022/12/12 03:57:30;;;;;;;11.55;7.00;;;;;;;3.78;81.73;98508.19;5034254;28;20065;-57
2022/12/12 04:00:02;;;;;;;12.25;6.88;;;;;;;3.81;81.35;98507.94;5033145;28;20802;-57
2022/12/12 04:02:37;;;;;;;13.68;7.28;;;;;;;3.78;81.52;98502.06;5032738;28;20037;-57
2022/12/12 04:05:20;;;;;;;9.48;6.30;;;;;;;3.81;81.83;98501.81;5033685;28;20483;-55
2022/12/12 04:08:09;;;;;;;10.25;6.53;;;;;;;3.84;81.63;98512.19;5033028;28;20060;-57
2022/12/12 04:13:43;;;;;;;10.57;6.43;;;;;;;3.79;81.62;98509.88;5033309;28;20033;-57
2022/12/12 04:16:17;;;;;;;10.15;6.68;;;;;;;3.84;80.91;98518.31;5033198;28;20029;-60
2022/12/12 04:18:54;;;;;;;10.27;6.18;;;;;;;3.81;81.53;98510.59;5032782;28;20400;-58
2022/12/12 04:24:29;;;;;;;12.95;5.85;;;;;;;3.85;80.64;98495.34;5032548;28;20056;-60
2022/12/12 04:27:11;;;;;;;12.85;6.57;;;;;;;3.87;81.12;98515.47;5033521;28;20048;-56
2022/12/12 04:29:41;;;;;;;10.38;6.00;;;;;;;3.80;81.20;98510.72;5033281;28;20081;-57
2022/12/12 04:32:13;;;;;;;11.55;6.00;;;;;;;3.76;81.66;98520.69;5032247;28;20051;-57
2022/12/12 04:34:58;;;;;;;9.75;6.07;;;;;;;3.83;81.01;98516.63;5033127;28;20040;-59
2022/12/12 04:37:39;;;;;;;11.02;6.55;;;;;;;3.78;80.82;98518.78;5032513;28;20048;-58
2022/12/12 04:40:09;;;;;;;11.57;6.15;;;;;;;3.79;81.20;98525.75;5033281;28;20044;-58
2022/12/12 04:42:49;;;;;;;8.65;5.43;;;;;;;3.89;81.57;98525.91;5032890;28;20076;-58
2022/12/12 04:45:20;;;;;;;10.18;6.45;;;;;;;3.83;80.82;98511.31;5033054;28;20040;-59
2022/12/12 04:47:51;;;;;;;13.35;6.82;;;;;;;3.79;81.21;98528.41;5033446;28;20456;-59
2022/12/12 04:50:20;;;;;;;11.93;6.50;;;;;;;3.72;81.61;98519.22;5032439;28;20091;-56
2022/12/12 04:52:49;;;;;;;11.20;6.70;;;;;;;3.77;81.48;98514.44;5032957;28;20106;-59
2022/12/12 04:55:21;;;;;;;11.90;6.65;;;;;;;3.81;81.69;98523.84;5033140;28;20037;-58
2022/12/12 04:57:52;;;;;;;11.88;6.63;;;;;;;3.81;81.53;98520.34;5033278;28;20076;-59
2022/12/12 05:00:19;;;;;;;11.15;6.25;;;;;;;3.74;81.33;98504.06;5032440;28;20053;-58
2022/12/12 05:02:57;;;;;;;11.40;6.45;;;;;;;3.86;81.89;98515.56;5032632;28;20033;-59
2022/12/12 05:05:38;;;;;;;10.13;6.28;;;;;;;3.85;81.47;98509.41;5032792;28;20042;-60
2022/12/12 05:08:13;;;;;;;9.50;6.25;;;;;;;3.76;81.59;98494.22;5032461;28;20365;-61
2022/12/12 05:10:43;;;;;;;10.48;6.18;;;;;;;3.85;81.07;98490.88;5032404;28;20075;-60
2022/12/12 05:13:20;;;;;;;10.77;6.47;;;;;;;3.82;81.42;98530.81;5032701;28;20456;-61
2022/12/12 05:15:48;;;;;;;9.10;5.85;;;;;;;3.75;81.42;98510.22;5032894;28;20032;-61
2022/12/12 05:18:14;;;;;;;13.38;6.88;;;;;;;3.81;81.37;98507.13;5032901;28;20090;-60
2022/12/12 05:20:39;;;;;;;8.45;6.03;;;;;;;3.92;80.90;98514.28;5032251;28;20337;-59
2022/12/12 05:23:05;;;;;;;8.82;6.10;;;;;;;3.69;81.27;98498.28;5032203;28;20026;-60
2022/12/12 05:25:30;;;;;;;11.40;6.93;;;;;;;3.85;81.39;98535.06;5032852;28;20593;-60
2022/12/12 05:27:56;;;;;;;10.23;6.40;;;;;;;3.84;81.39;98522.78;5032291;28;20421;-60
2022/12/12 05:30:22;;;;;;;8.77;6.20;;;;;;;3.83;82.12;98529.84;5031397;28;20029;-58
2022/12/12 05:32:49;;;;;;;10.50;6.50;;;;;;;3.88;81.29;98532.19;5031982;28;20452;-59
2022/12/12 05:35:14;;;;;;;9.57;6.43;;;;;;;3.89;81.13;98517.97;5032246;28;20499;-56
2022/12/12 05:37:40;;;;;;;9.18;6.28;;;;;;;3.89;81.23;98515.34;5031216;28;20112;-57
2022/12/12 05:40:07;;;;;;;8.68;5.75;;;;;;;3.86;81.40;98521.72;5028500;28;20084;-59
2022/12/12 05:42:33;;;;;;;6.72;5.40;;;;;;;3.71;80.61;98491.06;5031652;28;20448;-59
2022/12/12 05:44:59;;;;;;;8.80;5.80;;;;;;;3.93;81.17;98531.84;5031740;28;20021;-58
2022/12/12 05:47:24;;;;;;;8.57;5.95;;;;;;;3.75;81.22;98521.66;5031654;28;20203;-60
2022/12/12 05:49:50;;;;;;;12.85;5.97;;;;;;;3.93;81.04;98531.84;5032102;28;20037;-62
2022/12/12 05:52:15;;;;;;;8.90;5.53;;;;;;;3.89;81.01;98520.63;5031857;28;20087;-62
2022/12/12 05:54:41;;;;;;;8.18;5.03;;;;;;;3.79;80.71;98504.56;5032391;28;20333;-62
2022/12/12 05:57:06;;;;;;;10.77;5.85;;;;;;;3.88;80.94;98530.38;5032246;28;20092;-60
2022/12/12 05:59:32;;;;;;;8.13;5.35;;;;;;;3.87;81.58;98531.34;5028070;28;20033;-60
2022/12/12 06:01:57;;;;;;;6.60;4.95;;;;;;;3.83;81.32;98527.22;5031371;28;20520;-54
2022/12/12 06:04:23;;;;;;;11.63;5.55;;;;;;;3.91;81.37;98541.72;5031499;28;20075;-60
2022/12/12 06:06:48;;;;;;;9.95;5.68;;;;;;;3.93;81.02;98553.03;5014534;28;20367;-62
2022/12/12 06:09:14;;;;;;;6.85;5.28;;;;;;;3.80;81.33;98522.16;5021144;28;20429;-64
2022/12/12 06:11:40;;;;;;;8.93;5.35;;;;;;;3.62;81.87;98523.50;5020565;28;20022;-56
2022/12/12 06:14:05;;;;;;;8.25;5.50;;;;;;;3.88;81.54;98540.97;5030513;28;20037;-55
2022/12/12 06:16:31;;;;;;;8.75;4.43;;;;;;;3.83;81.12;98540.44;5021895;28;20037;-58
2022/12/12 06:18:56;;;;;;;7.63;4.80;;;;;;;3.87;81.59;98544.59;5021700;28;20041;-55
2022/12/12 06:21:22;;;;;;;10.52;5.13;;;;;;;3.93;81.55;98551.22;5028738;28;20048;-54
2022/12/12 06:23:48;;;;;;;8.88;4.85;;;;;;;3.83;81.64;98532.50;5031934;28;20337;-53
2022/12/12 06:26:15;;;;;;;6.55;4.05;;;;;;;3.97;81.00;98541.25;5031407;28;20025;-64
2022/12/12 06:28:41;;;;;;;9.05;5.35;;;;;;;3.99;81.05;98536.69;5031196;28;20040;-62
2022/12/12 06:31:08;;;;;;;6.60;4.97;;;;;;;3.89;81.01;98536.50;5030180;28;20057;-66
2022/12/12 06:33:34;;;;;;;8.02;5.35;;;;;;;3.84;81.17;98538.66;5023207;28;20053;-65
2022/12/12 06:36:07;;;;;;;11.50;5.43;;;;;;;3.91;81.59;98558.44;5026193;28;20526;-64
2022/12/12 06:38:34;;;;;;;8.82;5.05;;;;;;;3.91;81.75;98536.41;5030007;28;20037;-64
2022/12/12 06:41:06;;;;;;;8.40;4.95;;;;;;;4.03;80.56;98543.44;5031730;28;20037;-73
2022/12/12 06:43:31;;;;;;;9.02;5.07;;;;;;;3.90;80.81;98540.03;5034872;28;20036;-65
2022/12/12 06:46:05;;;;;;;10.57;5.55;;;;;;;4.04;80.91;98552.25;5067374;28;20026;-61
2022/12/12 06:48:31;;;;;;;8.68;5.55;;;;;;;3.93;81.19;98558.31;5034432;28;20045;-62
2022/12/12 06:50:58;;;;;;;8.02;5.45;;;;;;;3.87;81.17;98555.19;5034460;28;20045;-63
2022/12/12 06:53:23;;;;;;;7.30;5.57;;;;;;;3.88;81.41;98556.88;5034153;28;20029;-61
2022/12/12 06:55:49;;;;;;;10.32;5.93;;;;;;;3.96;81.28;98558.09;5015389;28;20033;-62
2022/12/12 06:58:14;;;;;;;7.95;5.70;;;;;;;3.66;81.66;98527.63;5015441;28;20364;-63
2022/12/12 07:00:40;;;;;;;10.40;6.38;;;;;;;3.95;80.84;98556.41;5015030;28;20041;-63
2022/12/12 07:03:06;;;;;;;9.40;5.70;;;;;;;3.95;81.19;98567.84;5032487;28;20029;-62
2022/12/12 07:05:32;;;;;;;11.32;6.65;;;;;;;3.97;81.00;98554.50;5033173;28;20460;-61
2022/12/12 07:08:01;;;;;;;10.20;5.90;;;;;;;3.92;81.16;98546.88;5066685;28;20075;-62
2022/12/12 07:10:28;;;;;;;15.13;6.75;;;;;;;3.88;81.37;98556.88;5033961;28;20456;-61
2022/12/12 07:12:53;;;;;;;13.93;6.80;;;;;;;3.86;80.71;98558.78;5034903;28;20025;-62
2022/12/12 07:15:18;;;;;;;8.80;6.35;;;;;;;3.89;80.90;98565.63;5034827;28;20337;-61
2022/12/12 07:17:44;;;;;;;11.02;7.40;;;;;;;4.02;80.47;98574.38;5031972;28;20021;-71
2022/12/12 07:20:11;;;;;;;10.73;6.78;;;;;;;3.99;80.74;98568.47;5027990;28;20038;-62
2022/12/12 07:22:40;;;;;;;13.00;7.47;;;;;;;3.99;81.02;98555.22;5031739;28;20148;-62
2022/12/12 07:25:07;;;;;;;12.25;7.47;;;;;;;3.96;80.62;98561.56;5025489;28;20029;-62
2022/12/12 07:27:33;;;;;;;13.75;7.82;;;;;;;3.86;80.73;98558.78;5031050;28;20037;-63
2022/12/12 07:29:58;;;;;;;13.88;8.45;;;;;;;3.85;81.09;98580.91;5030332;28;20045;-61
2022/12/12 07:32:24;;;;;;;15.18;7.95;;;;;;;3.89;80.36;98549.75;5056731;28;20049;-61
2022/12/12 07:34:49;;;;;;;15.75;8.60;;;;;;;3.94;80.80;98560.00;5024065;28;20026;-61
2022/12/12 07:37:14;;;;;;;13.32;8.43;;;;;;;3.73;80.57;98531.50;5028019;28;20072;-61
2022/12/12 07:39:40;;;;;;;12.82;8.95;;;;;;;3.95;80.71;98559.88;5024324;28;20037;-61
2022/12/12 07:42:05;;;;;;;18.50;8.85;;;;;;;4.07;80.47;98563.44;5026687;28;20028;-61
2022/12/12 07:44:31;;;;;;;14.68;9.15;;;;;;;3.94;81.07;98576.72;5023172;28;20356;-61
2022/12/12 07:46:57;;;;;;;13.98;9.00;;;;;;;4.07;80.11;98574.03;5028685;28;20128;-61
2022/12/12 07:49:23;;;;;;;18.48;8.85;;;;;;;3.96;80.86;98558.94;5029349;28;20064;-61
2022/12/12 07:51:49;;;;;;;12.18;8.45;;;;;;;3.95;81.16;98572.28;5022583;28;20456;-61
2022/12/12 07:54:14;;;;;;;16.15;8.95;;;;;;;3.91;81.07;98563.72;5026965;28;20406;-62
2022/12/12 07:56:40;;;;;;;12.95;8.35;;;;;;;3.98;80.94;98570.28;5032465;28;20338;-62
2022/12/12 07:59:05;;;;;;;15.82;9.38;;;;;;;3.96;81.16;98568.69;5026683;28;20120;-62
2022/12/12 08:01:31;;;;;;;16.88;9.30;;;;;;;4.01;80.59;98563.88;5031532;28;20044;-62
2022/12/12 08:03:57;;;;;;;13.35;9.55;;;;;;;4.04;80.94;98566.31;5030616;28;20045;-61
2022/12/12 08:06:23;;;;;;;14.55;8.75;;;;;;;4.04;80.98;98560.19;5031426;28;20361;-62
2022/12/12 08:08:49;;;;;;;15.45;9.32;;;;;;;4.12;80.64;98568.41;5031519;28;20030;-64
2022/12/12 08:11:18;;;;;;;13.98;9.32;;;;;;;4.09;80.68;98561.50;5028990;28;20033;-61
2022/12/12 08:13:43;;;;;;;13.88;9.43;;;;;;;4.08;80.77;98572.25;5029010;28;20045;-62
2022/12/12 08:16:24;;;;;;;15.13;9.43;;;;;;;4.16;80.52;98570.72;5027892;28;20033;-61
2022/12/12 08:18:53;;;;;;;15.23;9.70;;;;;;;4.18;80.44;98583.00;5027075;28;20113;-61
2022/12/12 08:21:19;;;;;;;14.73;10.00;;;;;;;4.13;80.57;98557.69;5032083;28;20080;-62
2022/12/12 08:23:45;;;;;;;21.77;10.05;;;;;;;4.18;80.46;98572.41;5032633;28;20057;-62
2022/12/12 08:26:17;;;;;;;17.10;11.00;;;;;;;4.12;80.42;98571.91;5032652;28;20091;-61
2022/12/12 08:28:44;;;;;;;18.15;10.75;;;;;;;3.99;79.89;98540.19;5032925;28;20029;-61
2022/12/12 08:31:12;;;;;;;16.92;11.25;;;;;;;4.13;80.41;98576.25;5032301;28;20463;-61
2022/12/12 08:33:37;;;;;;;16.23;11.02;;;;;;;4.11;80.18;98561.41;5029201;28;20041;-63
2022/12/12 08:36:18;;;;;;;18.92;11.35;;;;;;;4.22;80.54;98582.66;5032024;28;20046;-62
2022/12/12 08:38:44;;;;;;;21.55;10.85;;;;;;;4.14;80.49;98585.03;5023065;28;20033;-60
2022/12/12 08:41:11;;;;;;;20.20;11.82;;;;;;;4.09;81.24;98577.41;5031966;28;20029;-61
2022/12/12 08:43:37;;;;;;;20.40;11.13;;;;;;;4.19;80.55;98582.03;5028293;28;20017;-58
2022/12/12 08:46:03;;;;;;;16.58;10.80;;;;;;;4.10;80.32;98572.97;5022330;28;20469;-63
2022/12/12 08:48:32;;;;;;;18.52;11.25;;;;;;;4.12;81.12;98590.44;5027961;28;20453;-62
2022/12/12 08:50:59;;;;;;;16.67;10.68;;;;;;;4.18;80.63;98585.66;5030248;28;20507;-61
2022/12/12 08:53:26;;;;;;;16.65;11.00;;;;;;;4.20;80.54;98594.31;5030893;28;20029;-61
2022/12/12 08:55:51;;;;;;;17.13;10.15;;;;;;;4.18;80.87;98583.00;5029222;28;20034;-57
2022/12/12 08:58:17;;;;;;;18.77;10.88;;;;;;;4.24;80.26;98578.09;5028168;28;20030;-60
2022/12/12 09:00:42;;;;;;;15.13;10.32;;;;;;;4.21;80.82;98583.59;5031549;28;20395;-61
2022/12/12 09:03:08;;;;;;;15.40;8.43;;;;;;;4.18;79.58;98567.94;5031564;28;20471;-61
2022/12/12 09:05:34;;;;;;;17.90;9.98;;;;;;;4.26;79.93;98592.06;5030502;28;20355;-61
2022/12/12 09:07:59;;;;;;;14.95;10.35;;;;;;;4.00;80.07;98567.50;5028815;28;20044;-60
2022/12/12 09:10:26;;;;;;;15.80;10.73;;;;;;;3.98;80.59;98561.47;5032336;28;20049;-62
2022/12/12 09:12:52;;;;;;;15.70;9.60;;;;;;;4.11;80.21;98580.81;5028570;28;20033;-70
2022/12/12 09:15:18;;;;;;;15.45;9.77;;;;;;;4.25;79.49;98590.38;5030308;28;20033;-63
2022/12/12 09:17:43;;;;;;;14.30;10.18;;;;;;;4.17;79.97;98603.34;5026141;28;20101;-64
2022/12/12 09:20:10;;;;;;;15.63;9.82;;;;;;;4.21;79.68;98603.97;5021837;28;20433;-63
2022/12/12 09:22:36;;;;;;;20.70;10.60;;;;;;;4.18;79.72;98588.31;5021986;28;20030;-63
2022/12/12 09:25:01;;;;;;;16.88;10.52;;;;;;;4.06;80.51;98567.03;5031357;28;21130;-62
2022/12/12 09:27:28;;;;;;;20.60;10.50;;;;;;;4.20;79.89;98581.06;5029354;28;20064;-64
2022/12/12 09:29:53;;;;;;;18.73;11.10;;;;;;;4.07;80.05;98597.88;5031840;28;20061;-62
2022/12/12 09:32:19;;;;;;;16.70;10.32;;;;;;;4.21;79.90;98580.94;5025899;28;20048;-61
2022/12/12 09:34:44;;;;;;;17.08;10.13;;;;;;;4.24;80.15;98607.25;5021927;28;20072;-62
2022/12/12 09:37:10;;;;;;;17.65;11.20;;;;;;;4.19;80.41;98597.94;5028992;28;20030;-65
2022/12/12 09:39:35;;;;;;;19.13;10.70;;;;;;;4.22;79.78;98595.06;5031138;28;20026;-64
2022/12/12 09:42:20;;;;;;;19.40;11.00;;;;;;;4.33;80.06;98596.91;5030029;28;20072;-67
2022/12/12 09:44:46;;;;;;;19.33;10.48;;;;;;;4.24;79.75;98588.69;5027868;28;20033;-64
2022/12/12 09:47:18;;;;;;;16.73;10.07;;;;;;;4.33;79.23;98594.25;5032232;28;20121;-65
2022/12/12 09:49:53;;;;;;;16.63;10.35;;;;;;;4.15;79.25;98563.72;5031915;28;20060;-64
2022/12/12 09:52:37;;;;;;;19.17;11.18;;;;;;;4.21;79.80;98562.41;5031347;28;20045;-65
2022/12/12 09:55:34;;;;;;;17.38;11.18;;;;;;;4.31;79.54;98576.66;5027354;28;20045;-65
2022/12/12 09:58:23;;;;;;;15.10;9.57;;;;;;;4.34;79.61;98551.75;5029275;28;20049;-64
2022/12/12 10:01:11;;;;;;;17.95;11.25;;;;;;;4.29;79.87;98580.38;5029175;28;20099;-63
2022/12/12 10:03:44;;;;;;;21.30;11.98;;;;;;;4.36;79.61;98578.97;5023520;28;20112;-61
2022/12/12 10:06:11;;;;;;;18.98;11.57;;;;;;;4.23;79.86;98570.25;5024901;28;20041;-65
2022/12/12 10:08:56;;;;;;;19.60;11.98;;;;;;;4.31;79.38;98589.06;5030601;28;20029;-64
2022/12/12 10:11:50;;;;;;;21.30;11.82;;;;;;;4.40;79.51;98582.22;5021682;28;20038;-63
2022/12/12 10:14:26;;;;;;;20.42;12.00;;;;;;;4.35;79.28;98579.94;5028732;28;20029;-61
2022/12/12 10:16:53;;;;;;;18.52;10.65;;;;;;;4.34;79.52;98580.03;5031361;28;20029;-63
2022/12/12 10:19:24;;;;;;;20.60;12.40;;;;;;;4.28;79.51;98582.19;5029407;28;20041;-62
2022/12/12 10:21:52;;;;;;;20.83;12.55;;;;;;;4.22;79.79;98582.66;5024968;28;20353;-63
2022/12/12 10:24:26;;;;;;;21.88;12.02;;;;;;;4.27;80.31;98592.91;5028931;28;20040;-62
2022/12/12 10:26:53;;;;;;;26.13;12.32;;;;;;;4.25;80.00;98568.31;5034486;28;20223;-63
2022/12/12 10:29:21;;;;;;;23.25;12.45;;;;;;;4.29;79.98;98575.09;5031012;28;20055;-63
2022/12/12 10:32:08;;;;;;;20.77;12.52;;;;;;;4.46;79.70;98560.56;5026393;28;20025;-67
2022/12/12 10:34:48;;;;;;;23.85;13.02;;;;;;;4.37;80.02;98580.66;5027573;28;20060;-65
2022/12/12 10:37:23;;;;;;;24.73;13.00;;;;;;;4.24;79.17;98558.69;5033407;28;20984;-64
2022/12/12 10:39:51;;;;;;;22.45;14.25;;;;;;;4.49;78.83;98564.78;5034316;28;20033;-68
2022/12/12 10:42:17;;;;;;;23.42;13.95;;;;;;;4.47;78.80;98596.72;5034923;28;20489;-67
2022/12/12 10:44:57;;;;;;;26.33;14.50;;;;;;;4.25;79.21;98542.69;5034785;28;20059;-62
2022/12/12 10:47:23;;;;;;;27.00;15.30;;;;;;;4.28;78.86;98539.81;5031317;28;20045;-66
2022/12/12 10:49:53;;;;;;;28.13;14.00;;;;;;;4.38;79.32;98577.06;5033679;28;20444;-67
2022/12/12 10:52:21;;;;;;;24.23;14.25;;;;;;;4.34;79.08;98580.03;5034892;28;20510;-66
2022/12/12 10:54:51;;;;;;;23.98;13.25;;;;;;;4.42;79.57;98577.66;5034784;28;20087;-67
2022/12/12 10:57:24;;;;;;;22.50;14.05;;;;;;;4.48;78.81;98573.69;5033066;28;20120;-66
2022/12/12 10:59:56;;;;;;;24.08;13.70;;;;;;;4.48;78.84;98576.34;5034507;28;20041;-66
2022/12/12 11:02:21;;;;;;;25.50;13.52;;;;;;;4.50;78.46;98577.94;5034544;28;20041;-67
2022/12/12 11:04:46;;;;;;;28.33;14.40;;;;;;;4.44;78.58;98565.13;5032740;28;20034;-67
2022/12/12 11:07:19;;;;;;;25.92;14.60;;;;;;;4.37;79.14;98555.97;5034104;28;20441;-65
2022/12/12 11:09:45;;;;;;;25.95;13.90;;;;;;;4.39;78.38;98580.53;5030475;28;20037;-66
2022/12/12 11:12:13;;;;;;;22.90;13.45;;;;;;;4.36;78.79;98586.94;5023038;28;20365;-65
2022/12/12 11:14:48;;;;;;;28.38;14.73;;;;;;;4.47;79.25;98572.88;5029713;28;20440;-65
2022/12/12 11:17:26;;;;;;;26.08;15.07;;;;;;;4.44;78.73;98573.94;5022696;28;20033;-66
2022/12/12 11:19:54;;;;;;;28.10;16.02;;;;;;;4.38;78.74;98600.91;5032441;28;20095;-64
2022/12/12 11:22:20;;;;;;;27.92;14.18;;;;;;;4.35;78.69;98553.44;5033676;28;20057;-64
2022/12/12 11:24:48;;;;;;;29.50;16.65;;;;;;;4.35;78.91;98571.13;5029757;28;20463;-65
2022/12/12 11:27:37;;;;;;;30.23;15.98;;;;;;;4.49;78.85;98556.84;5033406;28;20033;-64
2022/12/12 11:30:42;;;;;;;29.02;15.77;;;;;;;4.57;78.60;98552.66;5030491;28;20326;-64
2022/12/12 11:33:19;;;;;;;28.40;16.05;;;;;;;4.43;78.36;98547.53;5026886;28;20367;-65
2022/12/12 11:35:44;;;;;;;27.02;15.80;;;;;;;4.39;78.26;98564.63;5014545;28;20406;-65
2022/12/12 11:38:38;;;;;;;23.95;16.48;;;;;;;4.54;78.16;98571.44;5031852;28;20124;-64
2022/12/12 11:41:07;;;;;;;28.63;17.13;;;;;;;4.35;77.81;98553.44;5028450;28;20080;-64
2022/12/12 11:43:51;;;;;;;30.75;16.67;;;;;;;4.31;78.43;98560.78;5031685;28;20383;-66
2022/12/12 11:46:19;;;;;;;29.42;17.67;;;;;;;4.24;78.67;98556.91;5032175;28;20041;-66
2022/12/12 11:48:47;;;;;;;26.33;17.70;;;;;;;4.34;77.93;98564.16;5031098;28;20077;-64
2022/12/12 11:51:28;;;;;;;30.13;18.52;;;;;;;4.39;78.18;98581.41;5030981;28;20064;-64
2022/12/12 11:53:54;;;;;;;31.50;17.73;;;;;;;4.33;77.81;98554.50;5014513;28;20025;-64
2022/12/12 11:56:51;;;;;;;31.02;17.10;;;;;;;4.38;79.00;98549.69;5025061;28;20048;-64
2022/12/12 11:59:26;;;;;;;28.23;16.98;;;;;;;4.40;77.61;98572.50;5025613;28;20044;-63